Terminal Aerodrome Forecast
Issued by NWS Cleveland, OH

Home | Current Version | Previous Version | Graphics & Text | Print | Product List | Glossary On
Versions: 1 2 3 4 5 6 7 8 9 10 11 12 13 14 15 16 17
000
FTUS41 KCLE 230500
TAFCAK
TAF
KCAK 230537Z 2306/2406 34005KT P6SM BKN035
     FM231300 34007KT P6SM BKN015 BKN035
     FM231700 34007KT P6SM BKN035
     FM232100 32005KT P6SM SCT040
     FM240000 VRB03KT P6SM SKC=

USA.gov is the U.S. government's official web portal to all federal, state and local government web resources and services.